KASJ

Details ICAO KASJ
Name TRI CO
Region United States
Timezone America/New_York (UTC-5.0)
Plans Departing 0
Arriving 0
Stats Elevation 68 ft / 21 m (AMSL)
Location 36.297525° -77.170744°
Runways 1
Magnetic Variation 10.236° W
Sunrise 2017-12-10 12:10:48 UTC / 2017-12-10 07:10:48 Local
Sunset 2017-12-10 21:55:17 UTC / 2017-12-10 16:55:17 Local
Advertisement - Login to hide

Runways

ID Width Length Bearing (true) Bearing (mag) Surface Threshold Offset Overrun Length
01 75 ft / 23 m 4,512 ft / 1,375 m 1.21° 11.45° Asphalt 0 ft / 0 m 0 ft / 0 m
19 75 ft / 23 m 4,512 ft / 1,375 m 181.21° 191.45° Asphalt 0 ft / 0 m 0 ft / 0 m

Map

Weather


0- 5 10 15 20 25 30 35+ Temperature / ° C

Clouds and Precipitation
Forecast for 2017-12-11 06:00 UTC. Updated an hour ago

Ground ~20,000 ft ~40,000 ft Winds

METAR

KASJ 110425Z AUTO 00000KT 10SM SCT110 M02/M03 A3016 RMK AO2 T10231028

TAF

Not found

Frequencies

Recorded 119.07 MHz AWOS 3
Unicom 122.80 MHz CTAF/UNICOM
Warning: Do not use this data for real-world aviation or navigation. No guarantee of current accuracy is given.